sensor_id;sensor_type;location;lat;lon;timestamp;pressure;altitude;pressure_sealevel;temperature;humidity
72855;BME280;60991;51.278;22.550;2022-11-15T00:00:01;99598.50;;;7.52;75.52
72855;BME280;60991;51.278;22.550;2022-11-15T00:01:31;99599.38;;;7.39;75.97
72855;BME280;60991;51.278;22.550;2022-11-15T00:03:01;99602.22;;;7.38;76.11
72855;BME280;60991;51.278;22.550;2022-11-15T00:04:32;99596.38;;;7.29;76.59
72855;BME280;60991;51.278;22.550;2022-11-15T00:06:03;99598.81;;;7.30;76.67
72855;BME280;60991;51.278;22.550;2022-11-15T00:07:34;99599.00;;;7.36;75.91
72855;BME280;60991;51.278;22.550;2022-11-15T00:09:04;99588.66;;;7.27;75.79
72855;BME280;60991;51.278;22.550;2022-11-15T00:10:35;99590.53;;;7.20;76.39
72855;BME280;60991;51.278;22.550;2022-11-15T00:12:06;99592.06;;;7.41;75.97
72855;BME280;60991;51.278;22.550;2022-11-15T00:13:36;99588.53;;;7.54;75.45
72855;BME280;60991;51.278;22.550;2022-11-15T00:15:06;99579.69;;;7.67;74.68
72855;BME280;60991;51.278;22.550;2022-11-15T00:16:37;99579.59;;;7.80;75.08
72855;BME280;60991;51.278;22.550;2022-11-15T00:18:14;99567.19;;;7.80;74.56
72855;BME280;60991;51.278;22.550;2022-11-15T00:19:45;99571.19;;;7.89;75.04
72855;BME280;60991;51.278;22.550;2022-11-15T00:21:15;99561.47;;;7.83;74.58
72855;BME280;60991;51.278;22.550;2022-11-15T00:22:46;99564.69;;;7.92;74.86
72855;BME280;60991;51.278;22.550;2022-11-15T00:24:17;99565.66;;;7.97;73.78
72855;BME280;60991;51.278;22.550;2022-11-15T00:25:47;99565.66;;;7.97;74.33
72855;BME280;60991;51.278;22.550;2022-11-15T00:27:17;99560.94;;;7.99;74.84
72855;BME280;60991;51.278;22.550;2022-11-15T00:28:47;99559.69;;;8.02;74.57
72855;BME280;60991;51.278;22.550;2022-11-15T00:30:17;99564.13;;;7.83;74.31
72855;BME280;60991;51.278;22.550;2022-11-15T00:31:48;99554.03;;;7.74;74.71
72855;BME280;60991;51.278;22.550;2022-11-15T00:33:18;99560.41;;;7.91;74.88
72855;BME280;60991;51.278;22.550;2022-11-15T00:34:48;99555.97;;;7.85;74.29
72855;BME280;60991;51.278;22.550;2022-11-15T00:36:18;99556.69;;;7.98;74.16
72855;BME280;60991;51.278;22.550;2022-11-15T00:37:48;99560.50;;;8.03;74.16
72855;BME280;60991;51.278;22.550;2022-11-15T00:39:19;99558.69;;;8.03;74.32
72855;BME280;60991;51.278;22.550;2022-11-15T00:40:49;99554.31;;;7.90;74.99
72855;BME280;60991;51.278;22.550;2022-11-15T00:42:19;99556.16;;;7.90;74.90
72855;BME280;60991;51.278;22.550;2022-11-15T00:43:49;99561.19;;;7.67;75.63
72855;BME280;60991;51.278;22.550;2022-11-15T00:45:19;99554.78;;;7.56;75.80
72855;BME280;60991;51.278;22.550;2022-11-15T00:46:50;99554.69;;;7.38;76.84
72855;BME280;60991;51.278;22.550;2022-11-15T00:48:20;99555.25;;;7.46;76.07
72855;BME280;60991;51.278;22.550;2022-11-15T00:49:50;99551.22;;;7.69;75.33
72855;BME280;60991;51.278;22.550;2022-11-15T00:51:20;99541.06;;;7.72;75.30
72855;BME280;60991;51.278;22.550;2022-11-15T00:54:58;99538.63;;;7.95;73.81
72855;BME280;60991;51.278;22.550;2022-11-15T00:56:29;99534.00;;;7.91;74.50
72855;BME280;60991;51.278;22.550;2022-11-15T00:57:59;99537.16;;;7.99;73.83
72855;BME280;60991;51.278;22.550;2022-11-15T00:59:29;99530.19;;;8.05;73.92
72855;BME280;60991;51.278;22.550;2022-11-15T01:01:11;99529.59;;;8.03;74.06
72855;BME280;60991;51.278;22.550;2022-11-15T01:02:41;99530.16;;;8.12;73.51
72855;BME280;60991;51.278;22.550;2022-11-15T01:04:11;99531.91;;;8.18;73.36
72855;BME280;60991;51.278;22.550;2022-11-15T01:05:42;99528.44;;;8.17;73.72
72855;BME280;60991;51.278;22.550;2022-11-15T01:07:14;99520.66;;;8.04;73.85
72855;BME280;60991;51.278;22.550;2022-11-15T01:08:45;99524.44;;;8.15;73.75
72855;BME280;60991;51.278;22.550;2022-11-15T01:10:15;99517.44;;;8.20;74.03
72855;BME280;60991;51.278;22.550;2022-11-15T01:11:45;99516.84;;;8.18;74.02
72855;BME280;60991;51.278;22.550;2022-11-15T01:13:16;99513.94;;;8.26;73.19
72855;BME280;60991;51.278;22.550;2022-11-15T01:14:46;99515.97;;;8.24;73.56
72855;BME280;60991;51.278;22.550;2022-11-15T01:16:18;99513.63;;;8.16;73.67
72855;BME280;60991;51.278;22.550;2022-11-15T01:17:48;99506.59;;;7.85;74.72
72855;BME280;60991;51.278;22.550;2022-11-15T01:19:18;99503.25;;;7.72;74.56
72855;BME280;60991;51.278;22.550;2022-11-15T01:20:49;99506.81;;;7.59;76.18
72855;BME280;60991;51.278;22.550;2022-11-15T01:22:19;99501.00;;;7.44;76.75
72855;BME280;60991;51.278;22.550;2022-11-15T01:23:53;99504.72;;;7.36;76.81
72855;BME280;60991;51.278;22.550;2022-11-15T01:25:24;99502.72;;;7.32;76.97
72855;BME280;60991;51.278;22.550;2022-11-15T01:26:54;99501.81;;;7.13;76.99
72855;BME280;60991;51.278;22.550;2022-11-15T01:28:24;99503.09;;;7.04;78.00
72855;BME280;60991;51.278;22.550;2022-11-15T01:29:54;99495.41;;;6.95;78.67
72855;BME280;60991;51.278;22.550;2022-11-15T01:31:24;99490.31;;;7.01;78.65
72855;BME280;60991;51.278;22.550;2022-11-15T01:32:55;99490.06;;;7.09;78.55
72855;BME280;60991;51.278;22.550;2022-11-15T01:34:25;99490.16;;;7.27;77.58
72855;BME280;60991;51.278;22.550;2022-11-15T01:35:56;99490.13;;;7.34;77.54
72855;BME280;60991;51.278;22.550;2022-11-15T01:37:26;99487.38;;;7.47;76.80
72855;BME280;60991;51.278;22.550;2022-11-15T01:38:57;99485.50;;;7.54;76.34
72855;BME280;60991;51.278;22.550;2022-11-15T01:40:27;99489.38;;;7.51;77.22
72855;BME280;60991;51.278;22.550;2022-11-15T01:41:58;99488.47;;;7.64;76.57
72855;BME280;60991;51.278;22.550;2022-11-15T01:43:34;99489.06;;;7.66;76.47
72855;BME280;60991;51.278;22.550;2022-11-15T01:45:06;99481.13;;;7.66;76.00
72855;BME280;60991;51.278;22.550;2022-11-15T01:46:37;99487.00;;;7.68;75.67
72855;BME280;60991;51.278;22.550;2022-11-15T01:48:10;99480.22;;;7.79;75.43
72855;BME280;60991;51.278;22.550;2022-11-15T01:49:57;99477.94;;;7.82;75.67
72855;BME280;60991;51.278;22.550;2022-11-15T01:51:32;99476.44;;;7.43;77.25
72855;BME280;60991;51.278;22.550;2022-11-15T01:53:03;99476.72;;;7.35;77.00
72855;BME280;60991;51.278;22.550;2022-11-15T01:54:33;99477.16;;;7.25;76.95
72855;BME280;60991;51.278;22.550;2022-11-15T01:56:07;99470.56;;;7.10;78.12
72855;BME280;60991;51.278;22.550;2022-11-15T01:57:39;99478.09;;;7.06;78.11
72855;BME280;60991;51.278;22.550;2022-11-15T01:59:12;99478.28;;;7.11;78.23
72855;BME280;60991;51.278;22.550;2022-11-15T02:00:42;99467.38;;;7.01;78.61
72855;BME280;60991;51.278;22.550;2022-11-15T02:02:13;99475.13;;;6.96;78.87
72855;BME280;60991;51.278;22.550;2022-11-15T02:03:51;99471.91;;;6.87;78.48
72855;BME280;60991;51.278;22.550;2022-11-15T02:05:22;99468.94;;;6.77;79.47
72855;BME280;60991;51.278;22.550;2022-11-15T02:06:52;99467.94;;;6.72;79.52
72855;BME280;60991;51.278;22.550;2022-11-15T02:08:23;99468.47;;;6.87;79.66
72855;BME280;60991;51.278;22.550;2022-11-15T02:09:53;99464.16;;;6.92;78.97
72855;BME280;60991;51.278;22.550;2022-11-15T02:11:24;99459.97;;;7.16;78.24
72855;BME280;60991;51.278;22.550;2022-11-15T02:12:56;99462.13;;;7.26;77.80
72855;BME280;60991;51.278;22.550;2022-11-15T02:14:27;99465.66;;;7.20;78.02
72855;BME280;60991;51.278;22.550;2022-11-15T02:17:50;99459.84;;;7.05;79.48
72855;BME280;60991;51.278;22.550;2022-11-15T02:26:58;99453.31;;;7.07;79.18
72855;BME280;60991;51.278;22.550;2022-11-15T02:28:50;99445.28;;;7.27;78.47
72855;BME280;60991;51.278;22.550;2022-11-15T02:35:57;99435.16;;;7.49;77.45
72855;BME280;60991;51.278;22.550;2022-11-15T02:37:56;99435.28;;;7.60;76.98
72855;BME280;60991;51.278;22.550;2022-11-15T02:39:41;99439.66;;;7.67;76.63
72855;BME280;60991;51.278;22.550;2022-11-15T02:41:20;99437.03;;;7.67;75.97
72855;BME280;60991;51.278;22.550;2022-11-15T02:42:57;99439.97;;;7.58;76.16
72855;BME280;60991;51.278;22.550;2022-11-15T02:44:44;99436.25;;;7.41;76.43
72855;BME280;60991;51.278;22.550;2022-11-15T02:48:03;99433.06;;;7.57;76.57
72855;BME280;60991;51.278;22.550;2022-11-15T02:49:36;99433.81;;;7.40;77.17
72855;BME280;60991;51.278;22.550;2022-11-15T02:51:08;99424.38;;;7.50;76.48
72855;BME280;60991;51.278;22.550;2022-11-15T02:52:39;99427.28;;;7.42;77.21
72855;BME280;60991;51.278;22.550;2022-11-15T02:54:21;99425.34;;;7.56;77.13
72855;BME280;60991;51.278;22.550;2022-11-15T02:55:53;99419.63;;;7.59;76.50
72855;BME280;60991;51.278;22.550;2022-11-15T03:04:44;99413.63;;;7.70;75.40
72855;BME280;60991;51.278;22.550;2022-11-15T03:08:29;99413.38;;;7.53;76.80
72855;BME280;60991;51.278;22.550;2022-11-15T03:10:06;99406.03;;;7.30;77.09
72855;BME280;60991;51.278;22.550;2022-11-15T03:11:43;99406.59;;;7.14;77.13
72855;BME280;60991;51.278;22.550;2022-11-15T03:13:24;99413.47;;;7.15;77.71
72855;BME280;60991;51.278;22.550;2022-11-15T03:15:11;99407.84;;;7.05;78.07
72855;BME280;60991;51.278;22.550;2022-11-15T03:18:44;99402.28;;;6.88;78.75
72855;BME280;60991;51.278;22.550;2022-11-15T03:20:17;99396.38;;;6.93;78.67
72855;BME280;60991;51.278;22.550;2022-11-15T03:21:49;99397.22;;;6.87;78.35
72855;BME280;60991;51.278;22.550;2022-11-15T03:23:24;99391.91;;;6.93;78.80
72855;BME280;60991;51.278;22.550;2022-11-15T03:24:59;99392.94;;;6.92;78.76
72855;BME280;60991;51.278;22.550;2022-11-15T03:26:32;99403.84;;;7.03;78.63
72855;BME280;60991;51.278;22.550;2022-11-15T03:28:05;99399.69;;;7.13;77.96
72855;BME280;60991;51.278;22.550;2022-11-15T03:29:39;99394.16;;;7.21;78.28
72855;BME280;60991;51.278;22.550;2022-11-15T03:31:13;99400.28;;;7.15;78.22
72855;BME280;60991;51.278;22.550;2022-11-15T03:32:54;99396.88;;;7.08;77.78
72855;BME280;60991;51.278;22.550;2022-11-15T03:34:34;99387.69;;;7.17;78.16
72855;BME280;60991;51.278;22.550;2022-11-15T03:36:07;99381.97;;;7.20;77.87
72855;BME280;60991;51.278;22.550;2022-11-15T03:37:45;99386.16;;;7.28;76.90
72855;BME280;60991;51.278;22.550;2022-11-15T03:39:20;99383.63;;;7.40;76.37
72855;BME280;60991;51.278;22.550;2022-11-15T03:41:13;99386.97;;;7.28;77.29
72855;BME280;60991;51.278;22.550;2022-11-15T03:43:15;99379.91;;;6.98;77.76
72855;BME280;60991;51.278;22.550;2022-11-15T03:46:41;99384.16;;;6.99;78.04
72855;BME280;60991;51.278;22.550;2022-11-15T03:48:23;99384.91;;;7.06;77.84
72855;BME280;60991;51.278;22.550;2022-11-15T03:50:07;99376.28;;;7.23;77.19
72855;BME280;60991;51.278;22.550;2022-11-15T03:51:38;99379.16;;;7.15;77.66
72855;BME280;60991;51.278;22.550;2022-11-15T03:53:09;99369.53;;;7.03;77.73
72855;BME280;60991;51.278;22.550;2022-11-15T03:54:56;99374.84;;;6.96;78.85
72855;BME280;60991;51.278;22.550;2022-11-15T03:56:26;99373.31;;;7.07;77.28
72855;BME280;60991;51.278;22.550;2022-11-15T03:57:59;99369.63;;;7.14;78.26
72855;BME280;60991;51.278;22.550;2022-11-15T03:59:29;99371.41;;;7.20;77.15
72855;BME280;60991;51.278;22.550;2022-11-15T04:00:59;99363.63;;;7.25;77.18
72855;BME280;60991;51.278;22.550;2022-11-15T04:02:30;99363.28;;;7.22;77.41
72855;BME280;60991;51.278;22.550;2022-11-15T04:04:00;99358.72;;;7.29;77.14
72855;BME280;60991;51.278;22.550;2022-11-15T04:05:30;99356.47;;;7.33;76.96
72855;BME280;60991;51.278;22.550;2022-11-15T04:07:01;99348.28;;;7.41;77.36
72855;BME280;60991;51.278;22.550;2022-11-15T04:08:31;99340.66;;;7.51;76.60
72855;BME280;60991;51.278;22.550;2022-11-15T04:10:01;99349.16;;;7.35;77.44
72855;BME280;60991;51.278;22.550;2022-11-15T04:11:31;99353.50;;;7.47;76.64
72855;BME280;60991;51.278;22.550;2022-11-15T04:13:02;99348.56;;;7.33;77.43
72855;BME280;60991;51.278;22.550;2022-11-15T04:14:33;99345.91;;;7.33;76.91
72855;BME280;60991;51.278;22.550;2022-11-15T04:16:03;99352.53;;;7.42;76.92
72855;BME280;60991;51.278;22.550;2022-11-15T04:17:44;99339.00;;;7.32;77.18
72855;BME280;60991;51.278;22.550;2022-11-15T04:19:15;99335.34;;;7.33;76.25
72855;BME280;60991;51.278;22.550;2022-11-15T04:20:45;99335.94;;;7.35;76.99
72855;BME280;60991;51.278;22.550;2022-11-15T04:22:15;99323.50;;;7.42;76.65
72855;BME280;60991;51.278;22.550;2022-11-15T04:23:45;99327.59;;;7.38;77.00
72855;BME280;60991;51.278;22.550;2022-11-15T04:25:15;99332.13;;;7.30;77.05
72855;BME280;60991;51.278;22.550;2022-11-15T04:26:46;99318.69;;;7.32;76.95
72855;BME280;60991;51.278;22.550;2022-11-15T04:28:16;99320.53;;;7.32;76.47
72855;BME280;60991;51.278;22.550;2022-11-15T04:29:46;99308.72;;;7.34;76.49
72855;BME280;60991;51.278;22.550;2022-11-15T04:31:17;99312.56;;;7.13;76.78
72855;BME280;60991;51.278;22.550;2022-11-15T04:32:47;99312.41;;;7.08;77.62
72855;BME280;60991;51.278;22.550;2022-11-15T04:34:17;99313.66;;;7.06;77.72
72855;BME280;60991;51.278;22.550;2022-11-15T04:35:48;99317.38;;;7.23;77.38
72855;BME280;60991;51.278;22.550;2022-11-15T04:37:18;99312.75;;;7.18;77.84
72855;BME280;60991;51.278;22.550;2022-11-15T04:38:48;99314.41;;;7.13;77.71
72855;BME280;60991;51.278;22.550;2022-11-15T04:40:18;99310.97;;;7.12;78.12
72855;BME280;60991;51.278;22.550;2022-11-15T04:41:48;99312.19;;;7.10;78.23
72855;BME280;60991;51.278;22.550;2022-11-15T04:43:19;99310.75;;;7.14;77.95
72855;BME280;60991;51.278;22.550;2022-11-15T04:44:49;99308.28;;;7.19;76.91
72855;BME280;60991;51.278;22.550;2022-11-15T04:46:19;99303.09;;;7.06;77.85
72855;BME280;60991;51.278;22.550;2022-11-15T04:47:49;99311.44;;;6.78;78.61
72855;BME280;60991;51.278;22.550;2022-11-15T04:49:19;99312.84;;;6.80;78.94
72855;BME280;60991;51.278;22.550;2022-11-15T04:50:50;99304.38;;;6.72;78.88
72855;BME280;60991;51.278;22.550;2022-11-15T04:52:20;99309.03;;;6.76;78.50
72855;BME280;60991;51.278;22.550;2022-11-15T04:53:50;99306.59;;;6.75;79.05
72855;BME280;60991;51.278;22.550;2022-11-15T04:55:21;99306.06;;;6.91;78.69
72855;BME280;60991;51.278;22.550;2022-11-15T04:56:51;99313.84;;;6.86;78.94
72855;BME280;60991;51.278;22.550;2022-11-15T04:58:21;99312.22;;;6.85;78.52
72855;BME280;60991;51.278;22.550;2022-11-15T04:59:51;99301.31;;;6.75;78.65
72855;BME280;60991;51.278;22.550;2022-11-15T05:01:21;99301.69;;;6.78;78.48
72855;BME280;60991;51.278;22.550;2022-11-15T05:02:52;99300.69;;;6.79;79.03
72855;BME280;60991;51.278;22.550;2022-11-15T05:04:22;99305.25;;;6.90;77.94
72855;BME280;60991;51.278;22.550;2022-11-15T05:05:52;99299.75;;;6.92;78.20
72855;BME280;60991;51.278;22.550;2022-11-15T05:07:22;99293.66;;;6.91;77.82
72855;BME280;60991;51.278;22.550;2022-11-15T05:08:53;99293.66;;;6.91;78.44
72855;BME280;60991;51.278;22.550;2022-11-15T05:10:23;99290.91;;;6.86;78.49
72855;BME280;60991;51.278;22.550;2022-11-15T05:11:53;99286.69;;;6.79;79.05
72855;BME280;60991;51.278;22.550;2022-11-15T05:13:24;99290.91;;;6.55;79.76
72855;BME280;60991;51.278;22.550;2022-11-15T05:14:54;99295.25;;;6.43;80.15
72855;BME280;60991;51.278;22.550;2022-11-15T05:16:24;99277.44;;;6.38;81.13
72855;BME280;60991;51.278;22.550;2022-11-15T05:17:58;99285.31;;;6.45;80.88
72855;BME280;60991;51.278;22.550;2022-11-15T05:19:29;99278.75;;;6.54;80.81
72855;BME280;60991;51.278;22.550;2022-11-15T05:21:04;99281.38;;;6.54;80.32
72855;BME280;60991;51.278;22.550;2022-11-15T05:22:34;99281.81;;;6.51;80.45
72855;BME280;60991;51.278;22.550;2022-11-15T05:24:23;99277.94;;;6.53;80.47
72855;BME280;60991;51.278;22.550;2022-11-15T05:25:53;99275.84;;;6.62;80.84
72855;BME280;60991;51.278;22.550;2022-11-15T05:27:23;99276.50;;;6.57;80.50
72855;BME280;60991;51.278;22.550;2022-11-15T05:28:55;99276.84;;;6.68;80.43
72855;BME280;60991;51.278;22.550;2022-11-15T05:30:26;99275.50;;;6.83;79.30
72855;BME280;60991;51.278;22.550;2022-11-15T05:31:56;99275.75;;;6.75;79.58
72855;BME280;60991;51.278;22.550;2022-11-15T05:33:26;99273.06;;;6.82;79.34
72855;BME280;60991;51.278;22.550;2022-11-15T05:34:57;99272.91;;;6.77;79.40
72855;BME280;60991;51.278;22.550;2022-11-15T05:36:36;99274.94;;;6.75;79.43
72855;BME280;60991;51.278;22.550;2022-11-15T05:38:07;99267.66;;;6.70;79.44
72855;BME280;60991;51.278;22.550;2022-11-15T05:39:37;99269.94;;;6.67;79.23
72855;BME280;60991;51.278;22.550;2022-11-15T05:41:07;99271.78;;;6.66;79.48
72855;BME280;60991;51.278;22.550;2022-11-15T05:42:38;99266.84;;;6.70;79.00
72855;BME280;60991;51.278;22.550;2022-11-15T05:44:10;99254.66;;;6.75;79.05
72855;BME280;60991;51.278;22.550;2022-11-15T05:45:41;99259.72;;;6.77;78.80
72855;BME280;60991;51.278;22.550;2022-11-15T05:47:23;99265.78;;;6.77;79.01
72855;BME280;60991;51.278;22.550;2022-11-15T05:48:56;99261.91;;;6.80;79.43
72855;BME280;60991;51.278;22.550;2022-11-15T05:50:27;99271.19;;;6.64;79.67
72855;BME280;60991;51.278;22.550;2022-11-15T05:51:58;99260.50;;;6.52;80.22
72855;BME280;60991;51.278;22.550;2022-11-15T05:53:35;99260.56;;;6.46;80.22
72855;BME280;60991;51.278;22.550;2022-11-15T05:55:07;99256.44;;;6.50;79.91
72855;BME280;60991;51.278;22.550;2022-11-15T05:56:38;99257.66;;;6.54;79.99
72855;BME280;60991;51.278;22.550;2022-11-15T05:58:09;99246.72;;;6.50;80.62
72855;BME280;60991;51.278;22.550;2022-11-15T05:59:40;99257.44;;;6.55;80.17
72855;BME280;60991;51.278;22.550;2022-11-15T06:01:10;99249.09;;;6.58;79.61
72855;BME280;60991;51.278;22.550;2022-11-15T06:02:41;99247.28;;;6.59;80.38
72855;BME280;60991;51.278;22.550;2022-11-15T06:04:11;99238.47;;;6.40;80.67
72855;BME280;60991;51.278;22.550;2022-11-15T06:05:41;99235.63;;;6.42;80.80
72855;BME280;60991;51.278;22.550;2022-11-15T06:07:14;99240.88;;;6.48;80.28
72855;BME280;60991;51.278;22.550;2022-11-15T06:08:44;99243.06;;;6.51;80.17
72855;BME280;60991;51.278;22.550;2022-11-15T06:10:15;99246.06;;;6.55;80.13
72855;BME280;60991;51.278;22.550;2022-11-15T06:11:46;99252.25;;;6.42;80.80
72855;BME280;60991;51.278;22.550;2022-11-15T06:13:16;99245.16;;;6.43;80.87
72855;BME280;60991;51.278;22.550;2022-11-15T06:14:46;99242.53;;;6.43;80.28
72855;BME280;60991;51.278;22.550;2022-11-15T06:16:16;99249.06;;;6.34;80.79
72855;BME280;60991;51.278;22.550;2022-11-15T06:17:47;99248.47;;;6.32;81.05
72855;BME280;60991;51.278;22.550;2022-11-15T06:19:18;99248.81;;;6.42;80.60
72855;BME280;60991;51.278;22.550;2022-11-15T06:20:49;99249.25;;;6.39;80.48
72855;BME280;60991;51.278;22.550;2022-11-15T06:22:19;99254.88;;;6.49;80.07
72855;BME280;60991;51.278;22.550;2022-11-15T06:23:49;99252.00;;;6.50;80.58
72855;BME280;60991;51.278;22.550;2022-11-15T06:25:20;99263.34;;;6.51;80.60
72855;BME280;60991;51.278;22.550;2022-11-15T06:26:50;99260.81;;;6.38;80.39
72855;BME280;60991;51.278;22.550;2022-11-15T06:28:21;99255.75;;;6.36;80.75
72855;BME280;60991;51.278;22.550;2022-11-15T06:29:51;99253.97;;;6.30;80.80
72855;BME280;60991;51.278;22.550;2022-11-15T06:31:21;99248.00;;;6.41;80.13
72855;BME280;60991;51.278;22.550;2022-11-15T06:32:57;99250.66;;;6.41;81.00
72855;BME280;60991;51.278;22.550;2022-11-15T06:34:28;99250.31;;;6.56;79.98
72855;BME280;60991;51.278;22.550;2022-11-15T06:36:05;99253.78;;;6.56;80.72
72855;BME280;60991;51.278;22.550;2022-11-15T06:37:36;99251.91;;;6.64;80.34
72855;BME280;60991;51.278;22.550;2022-11-15T06:39:06;99243.50;;;6.73;79.46
72855;BME280;60991;51.278;22.550;2022-11-15T06:40:38;99248.34;;;6.76;79.89
72855;BME280;60991;51.278;22.550;2022-11-15T06:42:08;99247.88;;;6.86;79.38
72855;BME280;60991;51.278;22.550;2022-11-15T06:43:39;99240.97;;;6.85;79.49
72855;BME280;60991;51.278;22.550;2022-11-15T06:45:09;99239.72;;;6.87;79.94
72855;BME280;60991;51.278;22.550;2022-11-15T06:46:39;99239.03;;;6.99;78.85
72855;BME280;60991;51.278;22.550;2022-11-15T06:48:10;99238.84;;;6.93;79.34
72855;BME280;60991;51.278;22.550;2022-11-15T06:49:40;99240.84;;;6.98;78.85
72855;BME280;60991;51.278;22.550;2022-11-15T06:51:10;99247.09;;;7.04;78.63
72855;BME280;60991;51.278;22.550;2022-11-15T06:52:40;99245.47;;;7.03;78.44
72855;BME280;60991;51.278;22.550;2022-11-15T06:54:10;99246.63;;;7.07;79.04
72855;BME280;60991;51.278;22.550;2022-11-15T06:55:41;99249.75;;;7.04;78.80
72855;BME280;60991;51.278;22.550;2022-11-15T06:57:11;99247.53;;;7.01;78.51
72855;BME280;60991;51.278;22.550;2022-11-15T06:58:41;99246.13;;;6.98;78.54
72855;BME280;60991;51.278;22.550;2022-11-15T07:00:12;99242.69;;;6.98;79.10
72855;BME280;60991;51.278;22.550;2022-11-15T07:01:42;99244.28;;;6.99;78.64
72855;BME280;60991;51.278;22.550;2022-11-15T07:03:12;99243.19;;;7.06;78.31
72855;BME280;60991;51.278;22.550;2022-11-15T07:04:42;99240.81;;;7.05;79.08
72855;BME280;60991;51.278;22.550;2022-11-15T07:06:13;99249.56;;;6.99;79.08
72855;BME280;60991;51.278;22.550;2022-11-15T07:07:43;99241.00;;;7.03;78.18
72855;BME280;60991;51.278;22.550;2022-11-15T07:09:14;99246.84;;;7.05;78.23
72855;BME280;60991;51.278;22.550;2022-11-15T07:10:44;99245.22;;;6.86;79.62
72855;BME280;60991;51.278;22.550;2022-11-15T07:12:14;99246.56;;;6.95;78.61
72855;BME280;60991;51.278;22.550;2022-11-15T07:13:44;99254.22;;;7.03;78.87
72855;BME280;60991;51.278;22.550;2022-11-15T07:15:16;99247.16;;;6.97;78.32
72855;BME280;60991;51.278;22.550;2022-11-15T07:16:48;99252.66;;;6.95;78.41
72855;BME280;60991;51.278;22.550;2022-11-15T07:18:18;99249.16;;;7.02;78.27
72855;BME280;60991;51.278;22.550;2022-11-15T07:19:49;99252.22;;;6.99;77.98
72855;BME280;60991;51.278;22.550;2022-11-15T07:21:19;99255.22;;;7.02;78.27
72855;BME280;60991;51.278;22.550;2022-11-15T07:22:49;99251.28;;;7.11;77.91
72855;BME280;60991;51.278;22.550;2022-11-15T07:24:19;99256.72;;;7.16;77.61
72855;BME280;60991;51.278;22.550;2022-11-15T07:25:49;99255.47;;;7.19;77.61
72855;BME280;60991;51.278;22.550;2022-11-15T07:27:20;99252.41;;;7.22;77.11
72855;BME280;60991;51.278;22.550;2022-11-15T07:28:50;99259.50;;;7.21;77.76
72855;BME280;60991;51.278;22.550;2022-11-15T07:30:20;99250.31;;;7.24;77.21
72855;BME280;60991;51.278;22.550;2022-11-15T07:31:50;99251.44;;;6.91;78.27
72855;BME280;60991;51.278;22.550;2022-11-15T07:33:21;99257.31;;;6.69;79.14
72855;BME280;60991;51.278;22.550;2022-11-15T07:34:51;99264.91;;;6.58;79.17
72855;BME280;60991;51.278;22.550;2022-11-15T07:36:22;99253.88;;;6.43;79.95
72855;BME280;60991;51.278;22.550;2022-11-15T07:37:58;99260.81;;;6.38;80.23
72855;BME280;60991;51.278;22.550;2022-11-15T07:39:29;99260.00;;;6.37;79.95
72855;BME280;60991;51.278;22.550;2022-11-15T07:41:01;99255.81;;;6.54;79.99
72855;BME280;60991;51.278;22.550;2022-11-15T07:42:32;99243.66;;;6.53;80.43
72855;BME280;60991;51.278;22.550;2022-11-15T07:44:02;99247.69;;;6.56;79.89
72855;BME280;60991;51.278;22.550;2022-11-15T07:45:33;99246.88;;;6.55;80.08
72855;BME280;60991;51.278;22.550;2022-11-15T08:33:47;99221.00;;;6.46;80.23
72855;BME280;60991;51.278;22.550;2022-11-15T08:35:19;99204.66;;;6.62;79.53
72855;BME280;60991;51.278;22.550;2022-11-15T08:36:49;99217.88;;;6.55;80.31
72855;BME280;60991;51.278;22.550;2022-11-15T08:38:20;99223.31;;;6.60;79.78
72855;BME280;60991;51.278;22.550;2022-11-15T09:16:34;99201.97;;;6.44;81.34
72855;BME280;60991;51.278;22.550;2022-11-15T12:54:56;98912.59;;;11.79;64.07
72855;BME280;60991;51.278;22.550;2022-11-15T12:56:27;98918.56;;;11.60;64.43
72855;BME280;60991;51.278;22.550;2022-11-15T12:58:26;98915.38;;;11.26;65.36
72855;BME280;60991;51.278;22.550;2022-11-15T12:59:58;98910.75;;;11.16;65.78
72855;BME280;60991;51.278;22.550;2022-11-15T13:03:20;98905.94;;;10.59;67.09
72855;BME280;60991;51.278;22.550;2022-11-15T13:04:53;98910.28;;;10.44;67.68
72855;BME280;60991;51.278;22.550;2022-11-15T13:08:06;98906.91;;;10.26;68.88
72855;BME280;60991;51.278;22.550;2022-11-15T14:20:00;98869.69;;;9.11;72.60
72855;BME280;60991;51.278;22.550;2022-11-15T14:21:31;98872.28;;;9.06;72.99
72855;BME280;60991;51.278;22.550;2022-11-15T14:23:25;98874.94;;;9.06;73.26
72855;BME280;60991;51.278;22.550;2022-11-15T14:25:18;98878.22;;;9.13;72.80
72855;BME280;60991;51.278;22.550;2022-11-15T14:26:48;98876.38;;;9.13;73.06
72855;BME280;60991;51.278;22.550;2022-11-15T14:29:52;98860.81;;;9.00;72.91
72855;BME280;60991;51.278;22.550;2022-11-15T14:31:23;98863.22;;;9.01;73.08
72855;BME280;60991;51.278;22.550;2022-11-15T15:07:56;98839.03;;;8.24;76.64
72855;BME280;60991;51.278;22.550;2022-11-15T15:12:48;98824.44;;;8.22;76.74
72855;BME280;60991;51.278;22.550;2022-11-15T15:14:18;98822.38;;;8.24;76.71
72855;BME280;60991;51.278;22.550;2022-11-15T15:15:50;98821.81;;;8.22;77.12
72855;BME280;60991;51.278;22.550;2022-11-15T15:17:20;98824.59;;;8.15;76.98
72855;BME280;60991;51.278;22.550;2022-11-15T15:30:29;98806.28;;;8.25;77.46
72855;BME280;60991;51.278;22.550;2022-11-15T19:07:33;98725.72;;;8.61;75.06
72855;BME280;60991;51.278;22.550;2022-11-15T19:09:04;98722.28;;;8.61;75.88
72855;BME280;60991;51.278;22.550;2022-11-15T19:10:34;98714.91;;;8.63;75.61
72855;BME280;60991;51.278;22.550;2022-11-15T19:12:05;98707.22;;;8.61;75.33
72855;BME280;60991;51.278;22.550;2022-11-15T19:40:18;98693.03;;;8.67;74.94
72855;BME280;60991;51.278;22.550;2022-11-15T19:41:48;98694.63;;;8.68;74.76
72855;BME280;60991;51.278;22.550;2022-11-15T19:54:53;98685.56;;;8.64;75.35
72855;BME280;60991;51.278;22.550;2022-11-15T19:56:23;98681.31;;;8.63;75.06
72855;BME280;60991;51.278;22.550;2022-11-15T20:01:15;98680.91;;;8.55;75.65
72855;BME280;60991;51.278;22.550;2022-11-15T20:02:46;98675.38;;;8.56;75.35